createdAt,value
2023-05-14T00:00:57.636Z,61.33
2023-05-14T00:03:25.272Z,62.51
2023-05-14T00:05:53.523Z,61.66
2023-05-14T00:08:21.246Z,62.18
2023-05-14T00:10:48.958Z,62.60
2023-05-14T00:13:16.309Z,62.50
2023-05-14T00:15:44.048Z,63.05
2023-05-14T00:18:13.329Z,62.18
2023-05-14T00:20:40.993Z,62.39
2023-05-14T00:23:09.590Z,62.11
2023-05-14T00:25:37.543Z,61.81
2023-05-14T00:28:04.993Z,62.23
2023-05-14T00:30:35.004Z,62.93
2023-05-14T00:33:03.835Z,62.86
2023-05-14T00:35:31.047Z,61.95
2023-05-14T00:37:58.645Z,61.46
2023-05-14T00:40:27.361Z,61.47
2023-05-14T00:42:55.566Z,62.37
2023-05-14T00:45:33.385Z,62.73
2023-05-14T00:48:02.471Z,63.50
2023-05-14T00:50:29.789Z,63.12
2023-05-14T00:52:58.327Z,63.73
2023-05-14T00:55:27.288Z,62.70
2023-05-14T00:58:05.530Z,62.61
2023-05-14T01:00:33.693Z,62.39
2023-05-14T01:03:01.906Z,64.35
2023-05-14T01:05:48.724Z,63.93
2023-05-14T01:08:36.812Z,62.52
2023-05-14T01:11:08.316Z,62.91
2023-05-14T01:13:40.596Z,63.07
2023-05-14T01:16:08.789Z,62.81
2023-05-14T01:18:38.606Z,62.47
2023-05-14T01:21:06.442Z,60.92
2023-05-14T01:23:34.235Z,62.05
2023-05-14T01:26:01.871Z,61.35
2023-05-14T01:28:29.854Z,62.06
2023-05-14T01:30:58.692Z,61.17
2023-05-14T01:33:27.888Z,62.63
2023-05-14T01:35:55.536Z,61.74
2023-05-14T01:38:24.148Z,61.41
2023-05-14T01:40:51.746Z,61.52
2023-05-14T01:43:19.378Z,61.64
2023-05-14T01:45:48.264Z,60.97
2023-05-14T01:48:16.123Z,61.61
2023-05-14T01:50:44.505Z,62.01
2023-05-14T01:53:12.245Z,62.38
2023-05-14T01:55:39.901Z,62.23
2023-05-14T01:58:07.511Z,61.11
2023-05-14T02:00:34.838Z,60.53
2023-05-14T02:03:02.739Z,60.98
2023-05-14T02:05:30.052Z,61.09
2023-05-14T02:07:57.303Z,61.26
2023-05-14T02:10:25.260Z,61.24
2023-05-14T02:12:53.492Z,60.56
2023-05-14T02:15:20.770Z,60.50
2023-05-14T02:17:48.201Z,60.15
2023-05-14T02:20:16.664Z,60.72
2023-05-14T02:22:46.232Z,60.74
2023-05-14T02:25:15.306Z,61.10
2023-05-14T02:27:43.985Z,60.80
2023-05-14T02:30:11.999Z,61.70
2023-05-14T02:32:39.889Z,61.49
2023-05-14T02:35:07.871Z,61.06
2023-05-14T02:37:35.700Z,62.28
2023-05-14T02:40:04.548Z,60.79
2023-05-14T02:42:33.956Z,61.51
2023-05-14T02:45:01.593Z,61.36
2023-05-14T02:47:33.232Z,62.30
2023-05-14T02:50:01.361Z,62.31
2023-05-14T02:52:28.892Z,61.48
2023-05-14T02:54:56.650Z,61.17
2023-05-14T02:57:24.241Z,61.10
2023-05-14T02:59:51.572Z,61.90
2023-05-14T03:02:22.316Z,60.07
2023-05-14T03:04:50.669Z,60.70
2023-05-14T03:07:17.914Z,62.23
2023-05-14T03:09:46.037Z,60.97
2023-05-14T03:12:14.440Z,60.92
2023-05-14T03:14:41.699Z,61.99
2023-05-14T03:17:09.483Z,62.84
2023-05-14T03:19:37.480Z,62.75
2023-05-14T03:22:05.269Z,62.03
2023-05-14T03:24:33.150Z,61.07
2023-05-14T03:27:00.521Z,60.51
2023-05-14T03:29:27.978Z,61.21
2023-05-14T03:31:56.937Z,61.30
2023-05-14T03:34:24.925Z,62.01
2023-05-14T03:36:52.936Z,62.96
2023-05-14T03:39:22.139Z,62.95
2023-05-14T03:41:52.131Z,62.75
2023-05-14T03:44:19.601Z,64.06
2023-05-14T03:46:47.907Z,63.10
2023-05-14T03:49:15.706Z,63.50
2023-05-14T03:51:42.932Z,61.59
2023-05-14T03:54:11.110Z,61.89
2023-05-14T03:56:39.028Z,61.37
2023-05-14T03:59:06.535Z,62.53
2023-05-14T04:01:34.985Z,62.64
2023-05-14T04:04:03.163Z,62.17
2023-05-14T04:06:34.698Z,62.62
2023-05-14T04:09:05.343Z,62.48
2023-05-14T04:11:32.571Z,62.37
2023-05-14T04:14:07.121Z,61.22
2023-05-14T04:16:35.722Z,62.13
2023-05-14T04:19:09.865Z,63.09
2023-05-14T04:21:37.752Z,60.87
2023-05-14T04:24:07.897Z,60.47
2023-05-14T04:26:35.551Z,60.78
2023-05-14T04:29:03.720Z,60.11
2023-05-14T04:31:31.928Z,59.15
2023-05-14T04:36:31.407Z,60.65
2023-05-14T04:38:58.683Z,60.81
2023-05-14T04:41:26.407Z,59.98
2023-05-14T04:43:56.692Z,59.33
2023-05-14T04:46:25.340Z,59.17
2023-05-14T04:48:53.176Z,59.77
2023-05-14T04:51:21.552Z,59.66
2023-05-14T04:53:48.803Z,59.83
2023-05-14T04:56:16.696Z,60.18
2023-05-14T04:58:45.543Z,61.76
2023-05-14T05:01:13.266Z,60.43
2023-05-14T05:03:41.760Z,60.89
2023-05-14T05:06:09.750Z,60.92
2023-05-14T05:08:39.775Z,60.00
2023-05-14T05:11:08.704Z,59.78
2023-05-14T05:13:37.306Z,62.03
2023-05-14T05:16:06.316Z,60.18
2023-05-14T05:18:38.194Z,61.19
2023-05-14T05:21:10.369Z,60.97
2023-05-14T05:23:39.844Z,61.04
2023-05-14T05:26:10.662Z,61.61
2023-05-14T05:28:39.076Z,59.60
2023-05-14T05:33:43.428Z,59.34
2023-05-14T05:36:17.948Z,60.21
2023-05-14T05:38:50.757Z,60.72
2023-05-14T05:41:18.853Z,59.92
2023-05-14T05:43:46.853Z,61.19
2023-05-14T05:49:02.106Z,60.52
2023-05-14T05:51:30.524Z,61.45
2023-05-14T05:53:58.468Z,61.20
2023-05-14T05:56:34.544Z,60.42
2023-05-14T05:59:04.258Z,60.92
2023-05-14T06:01:35.800Z,60.87
2023-05-14T06:04:07.312Z,60.05
2023-05-14T06:06:37.417Z,61.44
2023-05-14T06:09:09.191Z,62.33
2023-05-14T06:11:39.442Z,62.67
2023-05-14T06:14:09.803Z,60.46
2023-05-14T06:16:39.580Z,63.35
2023-05-14T06:19:10.272Z,61.31
2023-05-14T06:21:47.692Z,62.83
2023-05-14T06:24:29.483Z,62.33
2023-05-14T06:27:01.529Z,63.01
2023-05-14T06:29:30.447Z,62.22
2023-05-14T06:32:03.915Z,61.59
2023-05-14T06:34:44.400Z,62.60
2023-05-14T06:37:15.528Z,62.14
2023-05-14T06:39:55.744Z,63.09
2023-05-14T06:42:28.619Z,62.28
2023-05-14T06:44:58.631Z,61.83
2023-05-14T06:47:26.748Z,63.47
2023-05-14T06:50:03.361Z,64.46
2023-05-14T06:52:39.479Z,62.27
2023-05-14T06:55:09.526Z,62.81
2023-05-14T06:57:40.799Z,62.52
2023-05-14T07:00:13.382Z,62.58
2023-05-14T07:02:50.457Z,63.04
2023-05-14T07:05:20.409Z,63.91
2023-05-14T07:07:48.834Z,62.48
2023-05-14T07:10:16.915Z,63.01
2023-05-14T07:12:45.824Z,63.48
2023-05-14T07:18:40.845Z,64.29
2023-05-14T07:21:15.751Z,63.87
2023-05-14T07:23:50.656Z,63.95
2023-05-14T07:26:26.689Z,66.28
2023-05-14T07:31:37.834Z,63.02
2023-05-14T07:34:09.372Z,63.38
2023-05-14T07:36:38.713Z,64.63
2023-05-14T07:41:41.504Z,64.16
2023-05-14T07:44:15.398Z,63.32
2023-05-14T07:46:51.386Z,63.91
2023-05-14T07:49:23.655Z,65.50
2023-05-14T07:51:52.852Z,63.21
2023-05-14T07:54:34.473Z,62.85
2023-05-14T07:57:02.510Z,62.76
2023-05-14T07:59:30.378Z,65.28
2023-05-14T08:02:17.565Z,65.27
2023-05-14T08:04:49.424Z,64.83
2023-05-14T08:07:19.708Z,64.61
2023-05-14T08:09:47.708Z,64.13
2023-05-14T08:12:18.832Z,61.75
2023-05-14T08:15:03.876Z,62.62
2023-05-14T08:17:52.701Z,62.34
2023-05-14T08:20:47.240Z,62.38
2023-05-14T08:23:22.764Z,63.07
2023-05-14T08:25:53.708Z,63.51
2023-05-14T08:28:35.554Z,63.56
2023-05-14T08:33:49.729Z,63.13
2023-05-14T08:36:43.564Z,64.83
2023-05-14T08:41:54.659Z,64.52
2023-05-14T08:47:07.621Z,64.16
2023-05-14T08:49:56.168Z,64.35
2023-05-14T08:52:32.756Z,63.30
2023-05-14T08:55:28.636Z,63.22
2023-05-14T08:58:17.380Z,65.50
2023-05-14T09:01:10.664Z,62.99
2023-05-14T09:04:00.419Z,64.00
2023-05-14T09:06:45.838Z,62.49
2023-05-14T09:09:45.126Z,63.12
2023-05-14T09:12:40.550Z,63.14
2023-05-14T09:15:30.910Z,63.43
2023-05-14T09:18:24.763Z,62.80
2023-05-14T09:21:20.498Z,62.59
2023-05-14T09:24:00.707Z,63.14
2023-05-14T09:26:56.565Z,63.35
2023-05-14T09:29:44.641Z,63.33
2023-05-14T09:32:20.687Z,63.33
2023-05-14T09:35:14.769Z,61.96
2023-05-14T09:38:14.218Z,63.96
2023-05-14T09:40:55.421Z,65.08
2023-05-14T09:43:44.857Z,63.32
2023-05-14T09:46:47.708Z,63.76
2023-05-14T09:49:22.959Z,64.86
2023-05-14T09:52:02.480Z,66.29
2023-05-14T09:54:43.607Z,66.66
2023-05-14T09:57:46.367Z,66.38
2023-05-14T10:00:32.737Z,65.57
2023-05-14T10:03:21.659Z,66.26
2023-05-14T10:06:12.405Z,65.44
2023-05-14T10:08:50.963Z,67.55
2023-05-14T10:11:39.002Z,67.94
2023-05-14T10:14:35.489Z,68.11
2023-05-14T10:17:24.083Z,67.26
2023-05-14T10:20:22.978Z,67.68
2023-05-14T10:23:30.385Z,66.52
2023-05-14T10:26:09.786Z,67.19
2023-05-14T10:28:53.141Z,67.21
2023-05-14T10:31:54.519Z,65.90
2023-05-14T10:34:50.442Z,65.96
2023-05-14T10:37:21.977Z,65.78
2023-05-14T10:40:08.481Z,65.23
2023-05-14T10:43:09.449Z,64.94
2023-05-14T10:46:05.855Z,64.41
2023-05-14T10:48:57.777Z,64.75
2023-05-14T10:51:53.237Z,66.07
2023-05-14T10:54:36.456Z,64.92
2023-05-14T11:00:12.990Z,66.09
2023-05-14T11:03:05.925Z,64.85
2023-05-14T11:05:47.399Z,65.67
2023-05-14T11:08:34.528Z,64.45
2023-05-14T11:11:24.388Z,64.08
2023-05-14T11:14:23.650Z,66.28
2023-05-14T11:19:59.673Z,66.40
2023-05-14T11:22:53.612Z,66.41
2023-05-14T11:25:49.456Z,64.47
2023-05-14T11:28:33.779Z,64.69
2023-05-14T11:31:47.486Z,64.29
2023-05-14T11:34:39.457Z,65.71
2023-05-14T11:40:18.444Z,66.73
2023-05-14T11:43:11.258Z,65.15
2023-05-14T11:46:05.223Z,65.18
2023-05-14T11:49:01.921Z,67.12
2023-05-14T11:51:58.737Z,67.44
2023-05-14T11:55:08.234Z,67.59
2023-05-14T11:57:58.394Z,67.49
2023-05-14T12:00:46.184Z,66.31
2023-05-14T12:03:41.584Z,65.53
2023-05-14T12:06:25.459Z,66.46
2023-05-14T12:09:15.342Z,66.32
2023-05-14T12:12:08.335Z,67.06
2023-05-14T12:14:55.155Z,68.67
2023-05-14T12:17:52.134Z,67.83
2023-05-14T12:20:49.805Z,68.01
2023-05-14T12:23:46.373Z,68.34
2023-05-14T12:29:22.692Z,67.39
2023-05-14T12:34:57.097Z,68.44
2023-05-14T12:37:40.188Z,68.76
2023-05-14T12:40:52.599Z,69.18
2023-05-14T12:43:30.296Z,69.40
2023-05-14T12:46:23.353Z,68.77
2023-05-14T12:52:09.716Z,68.14
2023-05-14T12:54:52.775Z,68.82
2023-05-14T12:57:41.573Z,69.28
2023-05-14T13:00:29.536Z,70.99
2023-05-14T13:03:19.451Z,70.71
2023-05-14T13:06:14.325Z,70.57
2023-05-14T13:09:15.703Z,72.43
2023-05-14T13:11:55.549Z,71.01
2023-05-14T13:20:09.322Z,70.77
2023-05-14T13:22:55.479Z,70.71
2023-05-14T13:25:41.553Z,70.94
2023-05-14T13:28:50.383Z,70.70
2023-05-14T13:31:49.791Z,70.86
2023-05-14T13:34:43.447Z,72.32
2023-05-14T13:37:35.536Z,72.32
2023-05-14T13:40:10.474Z,71.85
2023-05-14T13:42:49.906Z,72.22
2023-05-14T13:45:48.635Z,71.74
2023-05-14T13:48:38.582Z,72.52
2023-05-14T13:54:15.576Z,73.94
2023-05-14T13:57:01.163Z,73.95
2023-05-14T14:00:01.717Z,73.01
2023-05-14T14:02:51.458Z,73.18
2023-05-14T14:05:35.149Z,72.50
2023-05-14T14:08:22.063Z,72.23
2023-05-14T14:11:22.588Z,74.77
2023-05-14T14:13:57.703Z,74.97
2023-05-14T14:16:40.491Z,74.85
2023-05-14T14:19:35.772Z,74.83
2023-05-14T14:22:06.426Z,74.33
2023-05-14T14:24:42.710Z,75.56
2023-05-14T14:27:15.398Z,76.03
2023-05-14T14:29:53.484Z,77.17
2023-05-14T14:32:39.545Z,76.64
2023-05-14T14:35:26.531Z,76.99
2023-05-14T14:38:09.434Z,75.59
2023-05-14T14:40:46.366Z,76.21
2023-05-14T14:43:17.437Z,75.03
2023-05-14T14:45:48.303Z,74.92
2023-05-14T14:48:25.712Z,76.19
2023-05-14T14:50:59.634Z,77.32
2023-05-14T14:54:01.827Z,78.83
2023-05-14T14:59:56.495Z,75.71
2023-05-14T15:02:35.597Z,77.98
2023-05-14T15:05:15.594Z,75.38
2023-05-14T15:07:44.126Z,77.29
2023-05-14T15:10:43.513Z,77.88
2023-05-14T15:15:49.390Z,75.30
2023-05-14T15:18:25.518Z,75.94
2023-05-14T15:21:07.481Z,75.86
2023-05-14T15:24:06.687Z,75.44
2023-05-14T15:26:39.711Z,75.07
2023-05-14T15:29:15.652Z,75.10
2023-05-14T15:34:22.537Z,77.44
2023-05-14T15:36:53.194Z,75.07
2023-05-14T15:39:46.753Z,75.34
2023-05-14T15:42:17.535Z,75.77
2023-05-14T15:44:49.425Z,77.53
2023-05-14T15:47:28.538Z,75.80
2023-05-14T15:49:56.870Z,76.02
2023-05-14T15:52:26.000Z,75.26
2023-05-14T15:54:59.661Z,75.94
2023-05-14T15:57:47.414Z,75.11
2023-05-14T16:00:48.493Z,75.22
2023-05-14T16:03:43.681Z,75.86
2023-05-14T16:06:31.532Z,74.96
2023-05-14T16:09:45.580Z,74.94
2023-05-14T16:12:29.428Z,74.13
2023-05-14T16:15:18.684Z,74.32
2023-05-14T16:18:01.765Z,74.07
2023-05-14T16:20:51.464Z,74.10
2023-05-14T16:23:52.283Z,74.09
2023-05-14T16:26:47.294Z,75.40
2023-05-14T16:29:33.503Z,74.96
2023-05-14T16:32:26.422Z,73.58
2023-05-14T16:35:10.490Z,75.53
2023-05-14T16:37:55.415Z,76.59
2023-05-14T16:40:37.605Z,76.19
2023-05-14T16:46:00.414Z,75.40
2023-05-14T17:01:56.520Z,73.83
2023-05-14T17:04:55.560Z,74.89
2023-05-14T17:07:27.420Z,75.34
2023-05-14T17:10:00.507Z,76.00
2023-05-14T17:12:44.405Z,76.55
2023-05-14T17:17:49.745Z,74.55
2023-05-14T17:20:18.552Z,75.53
2023-05-14T17:22:46.198Z,74.56
2023-05-14T17:25:20.475Z,74.42
2023-05-14T17:27:49.927Z,74.12
2023-05-14T17:32:59.005Z,74.45
2023-05-14T17:35:35.409Z,75.41
2023-05-14T17:41:08.346Z,77.04
2023-05-14T17:43:37.456Z,76.73
2023-05-14T17:48:50.482Z,74.21
2023-05-14T17:51:24.286Z,75.73
2023-05-14T17:53:58.507Z,74.72
2023-05-14T17:56:32.290Z,74.46
2023-05-14T17:59:03.460Z,75.18
2023-05-14T18:01:35.464Z,75.35
2023-05-14T18:04:09.759Z,75.76
2023-05-14T18:06:51.433Z,75.17
2023-05-14T18:09:30.496Z,75.45
2023-05-14T18:12:09.794Z,75.28
2023-05-14T18:14:39.416Z,76.05
2023-05-14T18:17:07.198Z,75.19
2023-05-14T18:19:36.746Z,75.59
2023-05-14T18:22:08.852Z,76.27
2023-05-14T18:24:44.740Z,76.26
2023-05-14T18:27:21.470Z,76.43
2023-05-14T18:30:05.595Z,74.66
2023-05-14T18:32:38.653Z,75.33
2023-05-14T18:35:09.487Z,75.47
2023-05-14T18:37:45.063Z,76.18
2023-05-14T18:40:25.042Z,75.63
2023-05-14T18:43:02.434Z,75.92
2023-05-14T18:45:55.493Z,77.16
2023-05-14T18:48:28.439Z,75.63
2023-05-14T18:51:09.494Z,76.77
2023-05-14T18:53:38.548Z,76.53
2023-05-14T18:58:54.336Z,74.27
2023-05-14T19:01:28.274Z,74.93
2023-05-14T19:03:56.661Z,75.98
2023-05-14T19:06:28.650Z,76.94
2023-05-14T19:09:22.426Z,73.68
2023-05-14T19:12:17.196Z,73.83
2023-05-14T19:15:07.498Z,73.08
2023-05-14T19:17:42.741Z,73.60
2023-05-14T19:20:14.400Z,74.07
2023-05-14T19:22:46.957Z,74.11
2023-05-14T19:25:22.283Z,75.39
2023-05-14T19:27:56.373Z,76.01
2023-05-14T19:30:25.880Z,74.65
2023-05-14T19:33:04.546Z,74.86
2023-05-14T19:35:34.686Z,73.16
2023-05-14T19:38:05.464Z,74.67
2023-05-14T19:40:45.214Z,74.46
2023-05-14T19:43:26.282Z,75.12
2023-05-14T19:45:56.780Z,74.85
2023-05-14T19:48:30.437Z,74.50
2023-05-14T19:51:03.550Z,74.40
2023-05-14T19:56:23.191Z,74.10
2023-05-14T19:58:55.381Z,74.52
2023-05-14T20:01:36.558Z,73.69
2023-05-14T20:04:07.332Z,73.34
2023-05-14T20:06:37.013Z,73.60
2023-05-14T20:09:06.438Z,73.32
2023-05-14T20:11:42.329Z,74.71
2023-05-14T20:14:18.670Z,73.58
2023-05-14T20:16:49.115Z,72.99
2023-05-14T20:19:21.498Z,74.81
2023-05-14T20:21:51.056Z,75.10
2023-05-14T20:24:26.539Z,76.89
2023-05-14T20:26:54.748Z,73.76
2023-05-14T20:29:26.633Z,74.32
2023-05-14T20:31:57.405Z,74.97
2023-05-14T20:34:36.534Z,74.99
2023-05-14T20:37:05.589Z,76.66
2023-05-14T20:39:35.666Z,75.26
2023-05-14T20:42:03.726Z,74.23
2023-05-14T20:44:31.583Z,73.69
2023-05-14T20:47:06.695Z,75.16
2023-05-14T20:49:34.271Z,74.62
2023-05-14T20:52:04.461Z,73.29
2023-05-14T20:54:33.208Z,74.05
2023-05-14T20:57:02.410Z,73.45
2023-05-14T20:59:30.994Z,72.05
2023-05-14T21:01:59.896Z,73.25
2023-05-14T21:04:27.692Z,74.20
2023-05-14T21:06:56.065Z,73.97
2023-05-14T21:09:27.333Z,74.67
2023-05-14T21:12:01.484Z,75.05
2023-05-14T21:14:30.160Z,73.72
2023-05-14T21:16:57.556Z,75.16
2023-05-14T21:19:25.109Z,73.87
2023-05-14T21:21:56.678Z,74.17
2023-05-14T21:24:27.591Z,74.06
2023-05-14T21:26:55.266Z,73.91
2023-05-14T21:29:22.772Z,73.45
2023-05-14T21:31:50.741Z,74.69
2023-05-14T21:36:56.938Z,77.07
2023-05-14T21:39:28.010Z,75.05
2023-05-14T21:41:57.428Z,77.16
2023-05-14T21:44:25.944Z,75.21
2023-05-14T21:46:55.404Z,76.29
2023-05-14T21:49:29.640Z,75.17
2023-05-14T21:51:57.693Z,76.98
2023-05-14T21:54:25.050Z,77.94
2023-05-14T21:56:56.634Z,76.01
2023-05-14T21:59:24.388Z,75.90
2023-05-14T22:02:06.201Z,76.08
2023-05-14T22:04:35.813Z,76.67
2023-05-14T22:07:04.390Z,76.21
2023-05-14T22:09:32.263Z,75.36
2023-05-14T22:12:00.105Z,74.54
2023-05-14T22:14:29.009Z,75.07
2023-05-14T22:16:57.726Z,74.88
2023-05-14T22:19:26.880Z,74.11
2023-05-14T22:21:55.973Z,73.04
2023-05-14T22:24:23.424Z,74.06
2023-05-14T22:26:51.505Z,73.67
2023-05-14T22:29:19.410Z,73.39
2023-05-14T22:31:46.902Z,73.25
2023-05-14T22:34:15.496Z,73.93
2023-05-14T22:36:43.557Z,73.50
2023-05-14T22:39:13.325Z,74.30
2023-05-14T22:41:41.458Z,72.49
2023-05-14T22:44:09.441Z,73.04
2023-05-14T22:46:38.029Z,71.90
2023-05-14T22:49:11.647Z,72.38
2023-05-14T22:51:39.284Z,71.91
2023-05-14T22:54:06.933Z,73.67
2023-05-14T22:56:34.887Z,72.78
2023-05-14T22:59:02.402Z,72.62
2023-05-14T23:01:32.406Z,71.45
2023-05-14T23:04:00.303Z,70.69
2023-05-14T23:06:27.907Z,70.47
2023-05-14T23:08:57.245Z,70.62
2023-05-14T23:11:31.077Z,70.88
2023-05-14T23:13:59.304Z,69.55
2023-05-14T23:16:27.778Z,70.29
2023-05-14T23:18:55.452Z,70.30
2023-05-14T23:21:23.878Z,70.52
2023-05-14T23:23:51.189Z,70.01
2023-05-14T23:26:21.577Z,69.94
2023-05-14T23:28:49.370Z,69.77
2023-05-14T23:31:17.760Z,69.58
2023-05-14T23:33:46.850Z,69.39
2023-05-14T23:36:15.354Z,69.66
2023-05-14T23:38:43.083Z,69.75
2023-05-14T23:41:10.708Z,70.49
2023-05-14T23:43:38.485Z,70.83
2023-05-14T23:46:06.132Z,69.95
2023-05-14T23:48:33.547Z,69.98
2023-05-14T23:51:01.101Z,70.20
2023-05-14T23:53:28.540Z,69.75
2023-05-14T23:55:56.004Z,70.31
2023-05-14T23:58:23.522Z,70.38
